Time;durP1;ratioP1;P1;durP2;ratioP2;P2;SDS_P1;SDS_P2;PMS_P1;PMS_P2;Temp;Humidity;BMP_temperature;BMP_pressure;BME280_temperature;BME280_humidity;BME280_pressure;Samples;Min_cycle;Max_cycle;Signal;HPM_P1;HPM_P2
2022/04/19 00:00:37;;;;;;;1.90;1.30;;;9.70;99.90;;;;;;4896179;29;20245;-69
2022/04/19 00:03:05;;;;;;;2.77;1.30;;;9.70;99.90;;;;;;4896625;29;20269;-69
2022/04/19 00:05:32;;;;;;;4.20;1.20;;;9.80;99.90;;;;;;4896145;29;20266;-69
2022/04/19 00:08:00;;;;;;;2.00;1.37;;;9.80;99.90;;;;;;4896979;29;20211;-71
2022/04/19 00:10:28;;;;;;;2.30;1.60;;;9.80;99.90;;;;;;4897042;29;20307;-73
2022/04/19 00:12:55;;;;;;;1.80;1.27;;;9.80;99.90;;;;;;4897877;29;20266;-71
2022/04/19 00:15:22;;;;;;;1.50;1.20;;;9.70;99.90;;;;;;4900014;29;20546;-71
2022/04/19 00:17:50;;;;;;;1.90;1.10;;;9.70;99.90;;;;;;4900447;29;20214;-68
2022/04/19 00:20:18;;;;;;;2.67;1.10;;;9.70;99.90;;;;;;4899828;29;20245;-70
2022/04/19 00:22:44;;;;;;;1.87;1.30;;;9.70;99.90;;;;;;4900076;29;20640;-69
2022/04/19 00:25:12;;;;;;;3.17;1.40;;;9.70;99.90;;;;;;4900252;29;20217;-69
2022/04/19 00:27:39;;;;;;;2.53;1.60;;;9.70;99.90;;;;;;4899872;29;20629;-71
2022/04/19 00:30:06;;;;;;;2.90;1.67;;;9.60;99.90;;;;;;4899818;29;20579;-71
2022/04/19 00:32:33;;;;;;;2.57;1.53;;;9.50;99.90;;;;;;4899514;29;20241;-69
2022/04/19 00:35:01;;;;;;;2.37;1.57;;;9.50;99.90;;;;;;4898960;29;20210;-76
2022/04/19 00:37:28;;;;;;;1.80;1.30;;;9.50;99.90;;;;;;4899850;29;20294;-74
2022/04/19 00:39:58;;;;;;;2.53;1.30;;;9.60;99.90;;;;;;4899838;29;20210;-75
2022/04/19 00:42:27;;;;;;;1.63;1.27;;;9.60;99.90;;;;;;4899607;29;20313;-68
2022/04/19 00:44:54;;;;;;;2.90;1.87;;;9.50;99.90;;;;;;4899719;29;20690;-68
2022/04/19 00:47:21;;;;;;;4.50;1.70;;;9.60;99.90;;;;;;4899658;29;20553;-69
2022/04/19 00:49:48;;;;;;;2.80;1.83;;;9.50;99.90;;;;;;4899715;29;20217;-68
2022/04/19 00:52:17;;;;;;;3.37;1.70;;;9.40;99.90;;;;;;4899061;29;20226;-76
2022/04/19 00:54:44;;;;;;;3.20;1.87;;;9.40;99.90;;;;;;4899442;29;20214;-73
2022/04/19 00:57:12;;;;;;;3.80;1.90;;;9.30;99.90;;;;;;4899432;29;20221;-72
2022/04/19 00:59:38;;;;;;;3.70;1.93;;;9.40;99.90;;;;;;4899204;29;20211;-76
2022/04/19 01:02:05;;;;;;;4.13;2.07;;;9.30;99.90;;;;;;4898535;29;20246;-72
2022/04/19 01:04:32;;;;;;;3.10;1.73;;;9.30;99.90;;;;;;4898699;29;20206;-74
2022/04/19 01:06:59;;;;;;;4.67;2.30;;;9.20;99.90;;;;;;4898925;29;20214;-70
2022/04/19 01:09:28;;;;;;;3.67;2.10;;;9.20;99.90;;;;;;4898046;29;20199;-75
2022/04/19 01:14:40;;;;;;;4.33;2.27;;;9.20;99.90;;;;;;4895605;29;20221;-74
2022/04/19 01:17:07;;;;;;;6.50;2.33;;;9.30;99.90;;;;;;4899016;29;20681;-71
2022/04/19 01:19:38;;;;;;;2.70;1.67;;;9.20;99.90;;;;;;4899403;29;20210;-71
2022/04/19 01:22:07;;;;;;;4.13;1.80;;;9.10;99.90;;;;;;4898670;29;20245;-71
2022/04/19 01:24:36;;;;;;;4.30;1.70;;;9.10;99.90;;;;;;4898640;29;20214;-70
2022/04/19 01:27:03;;;;;;;3.10;1.70;;;9.00;99.90;;;;;;4899157;29;20217;-68
2022/04/19 01:29:29;;;;;;;4.67;1.90;;;9.00;99.90;;;;;;4898224;29;20210;-68
2022/04/19 01:31:56;;;;;;;6.27;2.50;;;9.00;99.90;;;;;;4899117;29;20240;-72
2022/04/19 01:34:23;;;;;;;3.03;1.90;;;9.00;99.90;;;;;;4898983;29;20266;-68
2022/04/19 01:36:50;;;;;;;3.57;2.27;;;9.00;99.90;;;;;;4898413;29;20715;-70
2022/04/19 01:40:16;;;;;;;4.37;2.33;;;9.00;99.90;;;;;;4898145;29;20215;-68
2022/04/19 01:42:06;;;;;;;3.13;2.07;;;8.90;99.90;;;;;;4898200;29;20238;-70
2022/04/19 01:44:34;;;;;;;4.57;2.50;;;8.90;99.90;;;;;;4898586;29;20296;-76
2022/04/19 01:47:02;;;;;;;4.60;2.63;;;8.80;99.90;;;;;;4898000;29;20214;-73
2022/04/19 01:49:29;;;;;;;4.77;2.67;;;8.80;99.90;;;;;;4898498;29;20220;-77
2022/04/19 01:51:56;;;;;;;4.13;2.23;;;8.80;99.90;;;;;;4898592;29;20251;-76
2022/04/19 01:54:24;;;;;;;3.70;2.30;;;8.80;99.90;;;;;;4898845;29;20206;-76
2022/04/19 01:56:50;;;;;;;4.83;2.50;;;8.70;99.90;;;;;;4898215;29;20218;-76
2022/04/19 01:59:17;;;;;;;4.53;2.77;;;8.60;99.90;;;;;;4897870;29;20210;-75
2022/04/19 02:01:47;;;;;;;5.10;2.80;;;8.60;99.90;;;;;;4898713;29;20242;-75
2022/04/19 02:04:14;;;;;;;5.20;2.80;;;8.70;99.90;;;;;;4897582;29;20266;-77
2022/04/19 02:06:41;;;;;;;4.67;2.33;;;8.60;99.90;;;;;;4898249;29;20206;-76
2022/04/19 02:09:08;;;;;;;5.43;3.43;;;8.60;99.90;;;;;;4898419;29;20214;-74
2022/04/19 02:11:37;;;;;;;6.57;2.90;;;8.60;99.90;;;;;;4898256;29;20230;-77
2022/04/19 02:14:04;;;;;;;3.70;2.83;;;8.50;99.90;;;;;;4897742;29;20222;-78
2022/04/19 02:16:31;;;;;;;5.90;3.10;;;8.50;99.90;;;;;;4898440;29;20262;-74
2022/04/19 02:18:58;;;;;;;6.63;3.47;;;8.50;99.90;;;;;;4898409;29;20214;-77
2022/04/19 02:21:25;;;;;;;7.00;3.10;;;8.40;99.90;;;;;;4897735;29;20237;-77
2022/04/19 02:23:52;;;;;;;7.80;3.67;;;8.50;99.90;;;;;;4898126;29;20214;-77
2022/04/19 02:26:19;;;;;;;4.30;2.80;;;8.50;99.90;;;;;;4897915;29;20206;-76
2022/04/19 02:28:48;;;;;;;8.17;3.37;;;8.50;99.90;;;;;;4897638;29;20214;-78
2022/04/19 02:31:14;;;;;;;6.97;3.67;;;8.40;99.90;;;;;;4897774;29;20230;-78
2022/04/19 02:33:41;;;;;;;6.83;3.70;;;8.40;99.90;;;;;;4897649;29;20210;-72
2022/04/19 02:36:08;;;;;;;5.83;3.63;;;8.40;99.90;;;;;;4896526;29;20203;-75
2022/04/19 02:38:36;;;;;;;5.77;3.10;;;8.40;99.90;;;;;;4897829;29;20220;-77
2022/04/19 02:41:04;;;;;;;5.13;2.93;;;8.50;99.90;;;;;;4897734;29;20245;-76
2022/04/19 02:43:31;;;;;;;7.47;3.83;;;8.40;99.90;;;;;;4897454;29;20309;-79
2022/04/19 02:45:59;;;;;;;8.23;3.97;;;8.40;99.90;;;;;;4898006;29;20680;-77
2022/04/19 02:48:28;;;;;;;8.70;3.93;;;8.40;99.90;;;;;;4898222;29;20281;-76
2022/04/19 02:50:55;;;;;;;6.80;4.00;;;8.50;99.90;;;;;;4897414;29;20301;-78
2022/04/19 02:53:21;;;;;;;7.67;3.70;;;8.50;99.90;;;;;;4897038;29;20207;-76
2022/04/19 02:55:49;;;;;;;9.80;4.10;;;8.40;99.90;;;;;;4897368;29;20695;-77
2022/04/19 02:58:16;;;;;;;9.13;4.13;;;8.40;99.90;;;;;;4897256;29;20213;-75
2022/04/19 03:00:42;;;;;;;8.53;4.03;;;8.40;99.90;;;;;;4897254;29;20260;-75
2022/04/19 03:03:11;;;;;;;7.10;4.20;;;8.30;99.90;;;;;;4897178;29;20711;-76
2022/04/19 03:05:40;;;;;;;9.43;4.00;;;8.30;99.90;;;;;;4897501;29;20814;-75
2022/04/19 03:08:07;;;;;;;10.83;4.93;;;8.20;99.90;;;;;;4897566;29;20794;-76
2022/04/19 03:10:34;;;;;;;9.87;4.30;;;8.00;99.90;;;;;;4896950;29;20206;-76
2022/04/19 03:13:04;;;;;;;8.73;4.67;;;7.90;99.90;;;;;;4897165;29;20230;-70
2022/04/19 03:15:31;;;;;;;12.63;4.60;;;7.90;99.90;;;;;;4897104;29;20289;-75
2022/04/19 03:17:58;;;;;;;9.87;5.13;;;7.90;99.90;;;;;;4897007;29;20206;-79
2022/04/19 03:20:26;;;;;;;8.90;4.80;;;8.00;99.90;;;;;;4897079;29;20214;-77
2022/04/19 03:28:21;;;;;;;9.50;4.77;;;7.80;99.90;;;;;;4896981;29;20659;-74
2022/04/19 03:30:48;;;;;;;9.83;5.07;;;7.70;99.90;;;;;;4896993;29;20214;-76
2022/04/19 03:33:16;;;;;;;8.73;4.37;;;7.70;99.90;;;;;;4897148;29;20221;-76
2022/04/19 03:35:44;;;;;;;9.30;5.33;;;7.70;99.90;;;;;;4897123;29;20214;-76
2022/04/19 03:38:11;;;;;;;12.83;5.17;;;7.70;99.90;;;;;;4896501;29;20250;-77
2022/04/19 03:40:38;;;;;;;10.27;5.03;;;7.70;99.90;;;;;;4897379;29;20210;-71
2022/04/19 03:43:07;;;;;;;10.87;5.70;;;7.70;99.90;;;;;;4895624;29;20226;-75
2022/04/19 03:45:34;;;;;;;9.17;4.53;;;7.60;99.90;;;;;;4896868;29;20553;-75
2022/04/19 03:48:01;;;;;;;9.50;5.47;;;7.60;99.90;;;;;;4899814;29;20214;-73
2022/04/19 03:50:30;;;;;;;11.77;5.83;;;7.50;99.90;;;;;;4900760;29;20671;-71
2022/04/19 03:52:58;;;;;;;14.40;5.60;;;7.40;99.90;;;;;;4900737;29;20733;-69
2022/04/19 03:55:25;;;;;;;12.10;5.70;;;7.50;99.90;;;;;;4900727;29;20214;-70
2022/04/19 03:57:52;;;;;;;12.07;5.70;;;7.40;99.90;;;;;;4900337;29;20211;-71
2022/04/19 04:00:21;;;;;;;10.07;5.63;;;7.40;99.90;;;;;;4899506;29;20652;-71
2022/04/19 04:02:48;;;;;;;12.30;6.77;;;7.40;99.90;;;;;;4900346;29;20310;-68
2022/04/19 04:05:14;;;;;;;11.57;6.03;;;7.40;99.90;;;;;;4900110;29;20225;-69
2022/04/19 04:07:42;;;;;;;11.63;6.10;;;7.40;99.90;;;;;;4900411;29;20663;-75
2022/04/19 04:10:11;;;;;;;13.00;5.30;;;7.40;99.90;;;;;;4900504;29;20210;-72
2022/04/19 04:12:38;;;;;;;10.33;5.57;;;7.40;99.90;;;;;;4899997;29;20595;-70
2022/04/19 04:15:05;;;;;;;10.90;5.67;;;7.40;99.90;;;;;;4899797;29;20214;-70
2022/04/19 04:17:32;;;;;;;14.27;6.50;;;7.30;99.90;;;;;;4899773;29;20206;-69
2022/04/19 04:19:59;;;;;;;12.53;5.87;;;7.30;99.90;;;;;;4900039;29;20301;-73
2022/04/19 04:22:26;;;;;;;15.27;6.00;;;7.20;99.90;;;;;;4899771;29;20242;-70
2022/04/19 04:24:53;;;;;;;13.10;5.63;;;7.20;99.90;;;;;;4900117;29;20218;-70
2022/04/19 04:27:21;;;;;;;15.70;5.90;;;7.20;99.90;;;;;;4900686;29;20269;-70
2022/04/19 04:29:48;;;;;;;13.67;5.80;;;7.10;99.90;;;;;;4899178;29;20210;-70
2022/04/19 04:32:15;;;;;;;11.87;5.77;;;7.10;99.90;;;;;;4899825;29;20237;-75
2022/04/19 04:34:42;;;;;;;11.23;5.90;;;7.00;99.90;;;;;;4899962;29;20660;-71
2022/04/19 04:37:09;;;;;;;14.20;6.47;;;7.00;99.90;;;;;;4900244;29;20210;-69
2022/04/19 04:39:35;;;;;;;14.03;6.20;;;7.10;99.90;;;;;;4900318;29;20228;-70
2022/04/19 04:42:03;;;;;;;14.10;6.10;;;7.00;99.90;;;;;;4899887;29;20249;-69
2022/04/19 04:44:31;;;;;;;11.50;5.43;;;7.00;99.90;;;;;;4899730;29;20210;-70
2022/04/19 04:49:42;;;;;;;15.83;6.10;;;7.10;99.90;;;;;;4899465;29;20284;-70
2022/04/19 04:52:10;;;;;;;14.77;7.23;;;7.20;99.90;;;;;;4898848;29;20226;-70
2022/04/19 04:54:38;;;;;;;17.93;7.00;;;7.00;99.90;;;;;;4899380;29;20216;-70
2022/04/19 04:57:06;;;;;;;13.23;6.67;;;7.10;99.90;;;;;;4898577;29;20302;-70
2022/04/19 04:59:35;;;;;;;12.90;6.97;;;7.10;99.90;;;;;;4897649;29;20221;-70
2022/04/19 05:02:03;;;;;;;14.83;6.30;;;7.20;99.90;;;;;;4897581;29;20234;-69
2022/04/19 05:04:32;;;;;;;14.53;6.40;;;7.20;99.90;;;;;;4898870;29;20241;-70
2022/04/19 05:06:59;;;;;;;13.80;7.07;;;7.30;99.90;;;;;;4898368;29;20233;-70
2022/04/19 05:09:26;;;;;;;11.90;6.80;;;7.30;99.90;;;;;;4898684;29;20549;-70
2022/04/19 05:11:53;;;;;;;16.77;7.23;;;7.30;99.90;;;;;;4898777;29;20234;-70
2022/04/19 05:14:20;;;;;;;16.03;8.00;;;7.40;99.90;;;;;;4899585;29;20206;-71
2022/04/19 05:16:49;;;;;;;17.03;7.53;;;7.40;99.90;;;;;;4898283;29;20233;-76
2022/04/19 05:19:16;;;;;;;14.40;6.97;;;7.50;99.90;;;;;;4898778;29;20663;-73
2022/04/19 05:21:43;;;;;;;16.80;7.53;;;7.60;99.90;;;;;;4897785;29;20250;-69
2022/04/19 05:24:10;;;;;;;13.87;7.27;;;7.70;99.90;;;;;;4898391;29;20216;-70
2022/04/19 05:26:37;;;;;;;16.77;7.43;;;7.90;99.90;;;;;;4898305;29;20205;-70
2022/04/19 05:29:05;;;;;;;16.90;8.30;;;7.90;99.90;;;;;;4897683;29;20302;-71
2022/04/19 05:31:31;;;;;;;15.57;7.37;;;8.10;99.90;;;;;;4898689;29;20230;-70
2022/04/19 05:34:00;;;;;;;16.33;7.40;;;8.30;99.90;;;;;;4896927;29;20675;-71
2022/04/19 05:36:27;;;;;;;17.27;7.80;;;8.60;99.90;;;;;;4879855;29;20215;-69
2022/04/19 05:38:54;;;;;;;16.53;7.20;;;8.80;99.90;;;;;;4884164;29;20303;-70
2022/04/19 05:41:21;;;;;;;17.17;7.53;;;9.20;99.90;;;;;;4897882;29;20232;-70
2022/04/19 05:43:49;;;;;;;14.67;7.50;;;9.60;99.90;;;;;;4898239;29;20210;-69
2022/04/19 05:46:17;;;;;;;18.93;7.43;;;10.40;99.90;;;;;;4898093;29;20350;-70
2022/04/19 05:48:43;;;;;;;14.73;7.07;;;11.10;99.90;;;;;;4898160;29;20202;-70
2022/04/19 05:51:12;;;;;;;14.77;7.60;;;11.40;99.90;;;;;;4897015;29;20440;-75
2022/04/19 05:53:38;;;;;;;16.63;7.60;;;11.90;99.90;;;;;;4897632;29;20213;-70
2022/04/19 05:56:06;;;;;;;18.07;8.43;;;12.40;99.90;;;;;;4897987;29;20211;-68
2022/04/19 05:58:32;;;;;;;15.77;6.50;;;12.90;99.90;;;;;;4895859;29;20262;-77
2022/04/19 06:01:01;;;;;;;12.87;7.03;;;13.30;99.90;;;;;;4897098;29;20203;-75
2022/04/19 06:06:14;;;;;;;19.20;13.10;;;14.00;99.90;;;;;;4897844;29;20269;-73
2022/04/19 06:08:41;;;;;;;15.20;8.10;;;14.50;99.90;;;;;;4898795;29;20298;-68
2022/04/19 06:11:11;;;;;;;21.73;10.80;;;14.90;99.90;;;;;;4898286;29;20233;-72
2022/04/19 06:13:37;;;;;;;22.30;11.13;;;15.10;99.90;;;;;;4898453;29;20662;-75
2022/04/19 06:16:05;;;;;;;20.37;9.90;;;15.60;99.90;;;;;;4897695;29;20564;-73
2022/04/19 06:18:32;;;;;;;20.57;10.10;;;16.10;99.90;;;;;;4894246;29;20213;-75
2022/04/19 06:20:59;;;;;;;19.57;10.83;;;16.50;99.90;;;;;;4897689;29;20213;-72
2022/04/19 06:23:28;;;;;;;19.27;10.37;;;16.80;99.90;;;;;;4897408;29;20638;-74
2022/04/19 06:25:54;;;;;;;18.73;10.70;;;17.60;99.90;;;;;;4897528;29;20206;-76
2022/04/19 06:28:21;;;;;;;18.37;10.27;;;18.60;99.90;;;;;;4898368;29;20210;-69
2022/04/19 06:30:48;;;;;;;18.27;10.50;;;19.60;99.20;;;;;;4897891;29;20329;-71
2022/04/19 06:33:15;;;;;;;18.40;10.48;;;20.50;97.70;;;;;;4897215;29;20210;-72
2022/04/19 06:35:42;;;;;;;19.42;10.75;;;20.50;96.90;;;;;;4898119;29;20222;-75
2022/04/19 06:38:09;;;;;;;18.08;10.15;;;20.10;96.00;;;;;;4897736;29;20214;-77
2022/04/19 06:40:37;;;;;;;18.77;9.88;;;19.80;96.70;;;;;;4897574;29;20217;-76
2022/04/19 06:43:04;;;;;;;20.33;10.38;;;19.50;96.50;;;;;;4891680;29;20723;-69
2022/04/19 06:45:31;;;;;;;19.10;9.75;;;19.40;96.60;;;;;;4891732;29;20210;-76
2022/04/19 06:47:59;;;;;;;15.90;9.48;;;19.30;96.90;;;;;;4897131;29;20213;-75
2022/04/19 06:50:25;;;;;;;16.92;9.85;;;19.10;96.40;;;;;;4896837;29;20211;-76
2022/04/19 06:52:53;;;;;;;15.40;9.73;;;19.00;96.40;;;;;;4897117;29;20314;-74
2022/04/19 06:55:20;;;;;;;17.42;9.50;;;19.20;96.60;;;;;;4897216;29;20306;-75
2022/04/19 06:57:48;;;;;;;17.08;10.48;;;19.40;96.80;;;;;;4897011;29;20251;-77
2022/04/19 07:00:16;;;;;;;17.85;9.90;;;19.00;97.00;;;;;;4895547;29;20198;-70
2022/04/19 07:02:44;;;;;;;17.45;9.90;;;19.30;97.10;;;;;;4896772;29;20234;-69
2022/04/19 07:05:11;;;;;;;21.73;10.38;;;19.80;96.30;;;;;;4896951;29;20771;-76
2022/04/19 07:07:41;;;;;;;13.50;8.77;;;20.00;95.90;;;;;;4896647;29;20211;-69
2022/04/19 07:10:10;;;;;;;18.00;10.13;;;20.60;95.30;;;;;;4896338;29;20210;-69
2022/04/19 07:12:37;;;;;;;17.13;9.65;;;21.50;93.50;;;;;;4896297;29;20226;-73
2022/04/19 07:15:06;;;;;;;15.80;9.75;;;21.90;93.10;;;;;;4896599;29;20203;-74
2022/04/19 07:17:37;;;;;;;15.63;9.20;;;22.60;92.20;;;;;;4895275;29;20210;-73
2022/04/19 07:28:17;;;;;;;11.93;7.85;;;24.40;87.90;;;;;;4902721;29;20728;-72
2022/04/19 07:30:46;;;;;;;14.05;8.27;;;25.30;81.80;;;;;;4902981;29;20694;-70
2022/04/19 07:33:12;;;;;;;13.43;8.40;;;25.80;81.10;;;;;;4902035;29;20283;-78
2022/04/19 07:35:40;;;;;;;11.80;7.65;;;26.20;80.20;;;;;;4902940;29;20220;-69
2022/04/19 07:38:07;;;;;;;14.45;8.07;;;26.60;77.70;;;;;;4890676;29;20309;-70
2022/04/19 07:40:35;;;;;;;12.98;8.30;;;26.20;78.60;;;;;;4902325;29;20210;-78
2022/04/19 07:43:02;;;;;;;11.90;8.40;;;26.70;78.10;;;;;;4902647;29;20249;-69
2022/04/19 07:45:29;;;;;;;12.40;8.70;;;25.70;78.10;;;;;;4903145;29;20233;-73
2022/04/19 07:47:57;;;;;;;12.82;7.93;;;25.70;78.70;;;;;;4902757;29;20209;-72
2022/04/19 07:50:24;;;;;;;11.23;7.57;;;25.70;78.60;;;;;;4901954;29;20217;-77
2022/04/19 07:52:51;;;;;;;12.02;7.97;;;25.20;80.20;;;;;;4901880;29;20229;-77
2022/04/19 07:55:18;;;;;;;11.82;7.30;;;25.60;77.40;;;;;;4901889;29;20731;-75
2022/04/19 07:57:44;;;;;;;9.73;5.97;;;25.40;75.90;;;;;;4901840;29;20660;-70
2022/04/19 08:00:13;;;;;;;9.45;6.20;;;24.90;76.40;;;;;;4902099;29;20210;-74
2022/04/19 08:02:40;;;;;;;10.13;6.22;;;24.60;74.60;;;;;;4902152;29;20242;-73
2022/04/19 08:05:09;;;;;;;11.35;6.50;;;22.60;78.00;;;;;;4902448;29;20211;-69
2022/04/19 08:07:36;;;;;;;10.00;6.85;;;22.60;79.20;;;;;;4901624;29;20198;-72
2022/04/19 08:10:05;;;;;;;11.50;6.70;;;22.60;80.00;;;;;;4901623;29;20202;-70
2022/04/19 08:12:32;;;;;;;11.90;6.03;;;23.20;79.10;;;;;;4902526;29;20226;-70
2022/04/19 08:14:59;;;;;;;8.73;6.00;;;22.90;76.40;;;;;;4902517;29;20206;-74
2022/04/19 08:17:26;;;;;;;9.80;5.28;;;22.60;76.20;;;;;;4901714;29;20218;-70
2022/04/19 08:19:55;;;;;;;8.23;5.50;;;22.40;75.80;;;;;;4901935;29;20210;-71
2022/04/19 08:22:23;;;;;;;9.50;5.35;;;21.90;76.70;;;;;;4901879;29;20241;-74
2022/04/19 08:24:50;;;;;;;9.77;5.75;;;22.20;77.90;;;;;;4900591;29;20215;-76
2022/04/19 08:27:17;;;;;;;9.52;5.95;;;22.00;76.00;;;;;;4902146;29;20391;-70
2022/04/19 08:29:44;;;;;;;9.48;5.90;;;22.50;77.00;;;;;;4902266;29;20203;-70
2022/04/19 08:32:11;;;;;;;10.10;6.20;;;22.60;76.40;;;;;;4902424;29;20230;-71
2022/04/19 08:34:38;;;;;;;8.85;5.82;;;22.80;75.90;;;;;;4892778;29;20208;-72
2022/04/19 08:37:05;;;;;;;8.68;4.90;;;23.00;77.20;;;;;;4897997;29;20255;-73
2022/04/19 08:39:34;;;;;;;9.88;5.75;;;23.20;74.30;;;;;;4898363;29;20210;-73
2022/04/19 08:42:01;;;;;;;9.05;5.63;;;22.90;74.00;;;;;;4896109;29;20716;-74
2022/04/19 08:44:28;;;;;;;8.82;5.20;;;22.50;74.60;;;;;;4897063;29;20245;-70
2022/04/19 08:46:56;;;;;;;6.53;4.38;;;22.00;74.50;;;;;;4897529;29;20204;-74
2022/04/19 08:49:23;;;;;;;7.03;3.88;;;21.60;73.90;;;;;;4897004;29;20750;-70
2022/04/19 08:51:50;;;;;;;7.03;3.80;;;21.60;71.80;;;;;;4893215;29;20393;-78
2022/04/19 08:59:47;;;;;;;6.05;3.50;;;20.90;70.90;;;;;;4897813;29;20213;-70
2022/04/19 09:02:21;;;;;;;5.15;2.88;;;20.90;69.00;;;;;;4898386;29;20226;-71
2022/04/19 09:04:48;;;;;;;7.72;3.55;;;20.20;71.10;;;;;;4889802;29;20202;-72
2022/04/19 09:07:15;;;;;;;6.30;3.72;;;19.80;71.40;;;;;;4895227;29;20198;-74
2022/04/19 09:09:42;;;;;;;4.75;2.72;;;19.90;71.90;;;;;;4896714;29;20302;-75
2022/04/19 09:12:12;;;;;;;4.47;2.65;;;20.20;70.50;;;;;;4897893;29;20226;-71
2022/04/19 09:14:55;;;;;;;5.25;3.13;;;20.30;67.90;;;;;;4898209;29;20583;-71
2022/04/19 09:17:31;;;;;;;6.13;3.03;;;20.20;68.40;;;;;;4897992;29;20198;-73
2022/04/19 09:20:12;;;;;;;6.70;2.83;;;20.10;70.10;;;;;;4898130;29;20266;-71
2022/04/19 09:22:42;;;;;;;5.80;3.13;;;20.40;68.70;;;;;;4898248;29;20258;-73
2022/04/19 09:25:17;;;;;;;5.72;3.22;;;20.30;69.20;;;;;;4898616;29;20687;-72
2022/04/19 09:27:45;;;;;;;5.10;3.03;;;20.50;70.20;;;;;;4898432;29;20206;-69
2022/04/19 09:30:20;;;;;;;4.68;2.80;;;20.50;69.90;;;;;;4897978;29;20568;-70
2022/04/19 09:33:06;;;;;;;5.63;3.15;;;20.50;69.70;;;;;;4883942;29;20587;-70
2022/04/19 09:35:34;;;;;;;6.95;3.00;;;20.20;71.40;;;;;;4898615;29;20216;-75
2022/04/19 09:38:01;;;;;;;5.18;2.83;;;19.90;72.00;;;;;;4898463;29;20270;-72
2022/04/19 09:40:29;;;;;;;5.25;2.72;;;19.70;69.30;;;;;;4897438;29;20217;-71
2022/04/19 09:42:57;;;;;;;5.88;2.90;;;19.50;69.50;;;;;;4895662;29;20595;-70
2022/04/19 09:45:26;;;;;;;5.10;2.90;;;19.50;71.40;;;;;;4897382;29;20228;-76
2022/04/19 09:47:54;;;;;;;4.72;2.60;;;19.70;71.80;;;;;;4898267;29;20206;-71
2022/04/19 09:50:21;;;;;;;6.05;3.30;;;19.50;72.00;;;;;;4898235;29;20215;-71
2022/04/19 09:52:51;;;;;;;6.57;3.65;;;19.40;73.10;;;;;;4898578;29;20234;-72
2022/04/19 09:55:18;;;;;;;6.43;3.58;;;19.30;73.30;;;;;;4898242;29;20211;-73
2022/04/19 09:57:48;;;;;;;6.60;3.57;;;19.40;73.90;;;;;;4898692;29;20211;-73
2022/04/19 10:00:19;;;;;;;6.90;3.28;;;19.90;74.70;;;;;;4898709;29;20211;-77
2022/04/19 10:08:20;;;;;;;5.07;2.40;;;19.90;69.10;;;;;;4898081;29;20208;-72
2022/04/19 10:10:49;;;;;;;8.23;2.95;;;19.90;69.10;;;;;;4898171;29;20217;-70
2022/04/19 10:13:18;;;;;;;3.97;2.35;;;20.20;67.20;;;;;;4897951;29;20207;-71
2022/04/19 10:15:46;;;;;;;4.72;2.95;;;19.80;68.60;;;;;;4897596;29;20233;-70
2022/04/19 10:18:13;;;;;;;4.85;2.63;;;20.00;67.70;;;;;;4895476;29;20545;-70
2022/04/19 10:20:46;;;;;;;4.90;2.75;;;19.90;67.90;;;;;;4916740;23;20244;-67
2022/04/19 10:23:15;;;;;;;3.92;2.58;;;19.90;68.50;;;;;;4916500;29;20719;-73
2022/04/19 10:25:44;;;;;;;6.50;3.00;;;19.80;66.30;;;;;;4916718;29;20292;-67
2022/04/19 10:28:12;;;;;;;5.40;3.15;;;19.70;66.20;;;;;;4916123;29;20209;-74
2022/04/19 10:30:46;;;;;;;8.57;3.15;;;19.90;68.60;;;;;;4916084;29;20210;-67
2022/04/19 10:33:51;;;;;;;6.38;3.53;;;20.10;68.20;;;;;;4907960;29;20249;-72
2022/04/19 10:36:21;;;;;;;6.38;2.83;;;20.30;67.00;;;;;;4839225;29;20352;-70
2022/04/19 10:39:24;;;;;;;5.65;2.90;;;20.00;66.00;;;;;;4839447;29;20731;-68
2022/04/19 10:41:55;;;;;;;4.28;2.67;;;20.00;63.50;;;;;;4881796;29;20573;-69
2022/04/19 10:44:36;;;;;;;5.40;2.58;;;20.10;65.40;;;;;;4897101;29;20242;-68
2022/04/19 10:47:08;;;;;;;4.53;2.35;;;19.80;61.70;;;;;;4912881;29;20607;-66
2022/04/19 10:49:55;;;;;;;4.85;2.50;;;19.50;61.10;;;;;;4915813;29;20209;-68
2022/04/19 10:52:51;;;;;;;4.03;2.50;;;19.50;63.10;;;;;;4912830;29;20647;-67
2022/04/19 10:55:23;;;;;;;4.97;2.47;;;19.60;63.10;;;;;;4912763;29;20223;-67
2022/04/19 11:00:38;;;;;;;5.65;3.08;;;20.00;64.60;;;;;;4912816;29;20233;-69
2022/04/19 11:03:06;;;;;;;6.90;3.22;;;20.10;62.70;;;;;;4919348;29;20216;-67
2022/04/19 11:05:42;;;;;;;8.18;3.17;;;20.10;61.70;;;;;;4915976;29;20658;-67
2022/04/19 11:08:32;;;;;;;5.15;2.88;;;20.30;64.90;;;;;;4915421;29;20559;-67
2022/04/19 11:11:44;;;;;;;6.95;3.53;;;20.50;65.00;;;;;;4915731;29;20205;-67
2022/04/19 11:14:24;;;;;;;6.20;3.13;;;20.60;66.10;;;;;;4882004;29;20214;-67
2022/04/19 11:16:56;;;;;;;5.82;2.60;;;20.50;65.30;;;;;;4874379;29;20294;-69
2022/04/19 11:19:25;;;;;;;5.28;3.30;;;20.40;65.70;;;;;;4905213;29;20213;-68
2022/04/19 11:21:56;;;;;;;6.03;3.22;;;20.10;61.80;;;;;;4914789;29;20733;-66
2022/04/19 11:24:59;;;;;;;6.32;3.53;;;19.80;65.00;;;;;;4915091;29;20237;-69
2022/04/19 11:27:41;;;;;;;6.40;3.03;;;20.00;64.30;;;;;;4915203;29;20209;-68
2022/04/19 11:30:13;;;;;;;4.90;2.63;;;20.30;64.30;;;;;;4914421;29;20689;-71
2022/04/19 11:32:40;;;;;;;5.55;2.92;;;20.20;59.70;;;;;;4914903;29;20588;-71
2022/04/19 11:35:07;;;;;;;5.25;2.47;;;19.90;61.20;;;;;;4914915;29;20210;-68
2022/04/19 11:37:35;;;;;;;5.35;2.88;;;19.90;59.70;;;;;;4915302;29;20213;-73
2022/04/19 11:48:27;;;;;;;6.13;3.10;;;20.20;63.60;;;;;;4914776;29;20261;-68
2022/04/19 11:51:05;;;;;;;4.70;2.85;;;20.10;63.90;;;;;;4914965;29;20572;-70
2022/04/19 11:53:33;;;;;;;5.35;3.25;;;20.30;63.50;;;;;;4911685;29;20212;-72
2022/04/19 11:56:00;;;;;;;5.18;3.08;;;20.50;64.10;;;;;;4914982;29;20213;-68
2022/04/19 11:58:27;;;;;;;5.15;2.88;;;20.60;65.00;;;;;;4914835;29;20239;-74
2022/04/19 12:00:59;;;;;;;5.00;2.42;;;20.40;66.20;;;;;;4910745;29;20210;-73
2022/04/19 12:03:27;;;;;;;2.67;1.55;;;20.30;61.60;;;;;;4914763;29;20233;-74
2022/04/19 12:05:55;;;;;;;3.00;1.67;;;20.20;55.10;;;;;;4914848;29;20206;-68
2022/04/19 12:08:34;;;;;;;4.63;1.80;;;20.00;53.90;;;;;;4915878;29;20216;-66
2022/04/19 12:11:03;;;;;;;4.55;2.20;;;19.90;56.80;;;;;;4913383;29;20206;-67
2022/04/19 12:13:30;;;;;;;4.93;1.70;;;20.00;57.00;;;;;;4916807;29;20213;-66
2022/04/19 12:15:57;;;;;;;3.60;2.08;;;19.90;58.50;;;;;;4917987;29;20205;-67
2022/04/19 12:18:32;;;;;;;4.03;2.17;;;20.10;59.40;;;;;;4917922;29;20627;-66
2022/04/19 12:20:59;;;;;;;5.65;2.33;;;20.30;59.20;;;;;;4918055;29;20299;-70
2022/04/19 12:23:26;;;;;;;5.15;2.00;;;20.20;58.70;;;;;;4918678;29;20281;-68
2022/04/19 12:26:05;;;;;;;3.55;1.90;;;20.40;59.40;;;;;;4917990;29;20198;-73
2022/04/19 12:28:38;;;;;;;2.95;1.70;;;20.10;60.70;;;;;;4917806;29;20706;-67
2022/04/19 12:31:05;;;;;;;3.10;1.60;;;19.70;59.40;;;;;;4918008;29;20212;-71
2022/04/19 12:33:31;;;;;;;3.28;1.63;;;19.90;60.80;;;;;;4918208;29;20212;-67
2022/04/19 12:35:58;;;;;;;3.67;1.52;;;19.90;60.70;;;;;;4918681;29;20206;-68
2022/04/19 12:38:30;;;;;;;2.67;1.45;;;19.90;62.40;;;;;;4918051;29;20599;-69
2022/04/19 12:40:57;;;;;;;3.83;1.73;;;20.10;61.40;;;;;;4918075;29;20201;-67
2022/04/19 12:43:44;;;;;;;3.05;1.80;;;20.20;62.70;;;;;;4917525;29;20206;-73
2022/04/19 12:46:14;;;;;;;3.70;1.65;;;20.00;63.80;;;;;;4917645;29;20213;-67
2022/04/19 12:48:41;;;;;;;3.72;2.10;;;20.10;64.70;;;;;;4917821;29;20606;-67
2022/04/19 12:51:08;;;;;;;3.03;1.77;;;20.40;62.80;;;;;;4918015;29;20666;-66
2022/04/19 12:53:36;;;;;;;4.35;2.15;;;20.50;63.70;;;;;;4932506;29;20205;-66
2022/04/19 12:56:11;;;;;;;2.60;1.70;;;20.50;62.90;;;;;;4915336;29;20206;-67
2022/04/19 12:58:44;;;;;;;4.20;2.13;;;20.50;61.60;;;;;;4917699;29;20209;-67
2022/04/19 13:01:12;;;;;;;4.05;1.65;;;20.60;63.40;;;;;;4916889;29;20227;-68
2022/04/19 13:03:39;;;;;;;3.72;2.17;;;20.50;61.70;;;;;;4903333;29;20290;-68
2022/04/19 13:14:20;;;;;;;3.65;2.03;;;20.80;63.60;;;;;;4917302;29;20685;-72
2022/04/19 13:16:47;;;;;;;4.40;2.70;;;20.80;66.00;;;;;;4917034;29;20202;-75
2022/04/19 13:19:14;;;;;;;6.50;2.30;;;21.00;63.90;;;;;;4915587;29;20212;-69
2022/04/19 13:21:41;;;;;;;5.85;2.10;;;21.10;63.60;;;;;;4916020;29;20233;-74
2022/04/19 13:24:08;;;;;;;4.20;2.40;;;21.20;66.80;;;;;;4916459;29;20221;-71
2022/04/19 13:26:35;;;;;;;4.00;2.25;;;21.40;63.80;;;;;;4909827;29;20217;-73
2022/04/19 13:29:02;;;;;;;5.60;3.00;;;21.50;63.30;;;;;;4915898;29;20206;-73
2022/04/19 13:31:30;;;;;;;5.45;2.45;;;21.20;64.60;;;;;;4916994;29;20225;-72
2022/04/19 13:33:57;;;;;;;3.70;2.00;;;21.10;64.60;;;;;;4916600;29;20220;-69
2022/04/19 13:36:24;;;;;;;4.35;2.17;;;21.10;64.90;;;;;;4916910;29;20227;-71
2022/04/19 13:38:51;;;;;;;4.28;2.30;;;20.90;62.70;;;;;;4917882;29;20209;-68
2022/04/19 13:41:18;;;;;;;6.32;2.55;;;20.90;63.90;;;;;;4914718;29;20226;-75
2022/04/19 13:43:45;;;;;;;4.15;2.08;;;21.10;65.20;;;;;;4914159;29;20211;-75
2022/04/19 13:46:13;;;;;;;5.18;2.10;;;21.10;64.70;;;;;;4915675;29;20213;-68
2022/04/19 13:48:41;;;;;;;3.72;1.77;;;21.00;64.20;;;;;;4916678;29;20220;-68